Time;durP1;ratioP1;P1;durP2;ratioP2;P2;SDS_P1;SDS_P2;PMS_P1;PMS_P2;Temp;Humidity;BMP_temperature;BMP_pressure;BME280_temperature;BME280_humidity;BME280_pressure;Samples;Min_cycle;Max_cycle;Signal;HPM_P1;HPM_P2
2022/11/18 00:01:14;;;;;;;;;;;10.90;99.90;;;;;;7335864;19;113667;-80
2022/11/18 00:03:41;;;;;;;;;;;10.90;99.90;;;;;;7337394;19;110762;-80
2022/11/18 00:06:12;;;;;;;;;;;10.90;99.90;;;;;;7341748;19;111833;-80
2022/11/18 00:08:39;;;;;;;;;;;10.90;99.90;;;;;;7334210;19;108626;-81
2022/11/18 00:11:07;;;;;;;;;;;10.90;99.90;;;;;;7337071;19;111875;-80
2022/11/18 00:16:21;;;;;;;;;;;10.90;99.90;;;;;;7337595;19;108786;-80
2022/11/18 00:18:48;;;;;;;;;;;10.90;99.90;;;;;;7335334;19;112625;-80
2022/11/18 00:21:15;;;;;;;;;;;10.90;99.90;;;;;;7335706;19;109472;-80
2022/11/18 00:23:42;;;;;;;;;;;10.90;99.90;;;;;;7332947;19;109114;-80
2022/11/18 00:26:13;;;;;;;;;;;10.90;99.90;;;;;;7334701;19;109304;-81
2022/11/18 00:28:40;;;;;;;;;;;11.00;99.90;;;;;;7339427;19;109250;-80
2022/11/18 00:31:11;;;;;;;;;;;11.00;99.90;;;;;;7333859;19;120972;-80
2022/11/18 00:33:39;;;;;;;;;;;11.00;99.90;;;;;;7334615;19;110072;-80
2022/11/18 00:36:07;;;;;;;;;;;11.00;99.90;;;;;;7337852;19;108360;-80
2022/11/18 00:38:34;;;;;;;;;;;11.00;99.90;;;;;;7332444;19;108652;-80
2022/11/18 00:41:03;;;;;;;;;;;11.00;99.90;;;;;;7335216;19;110269;-80
2022/11/18 00:43:30;;;;;;;;;;;11.00;99.90;;;;;;7333557;19;112258;-80
2022/11/18 00:45:57;;;;;;;;;;;11.00;99.90;;;;;;7337732;19;108978;-80
2022/11/18 00:48:24;;;;;;;;;;;11.00;99.90;;;;;;7335555;19;112691;-80
2022/11/18 00:50:52;;;;;;;;;;;11.00;99.90;;;;;;7340917;19;108537;-80
2022/11/18 00:53:19;;;;;;;;;;;11.00;99.90;;;;;;7333521;19;110917;-80
2022/11/18 00:55:46;;;;;;;;;;;11.00;99.90;;;;;;7337564;19;109560;-80
2022/11/18 00:58:13;;;;;;;;;;;11.00;99.90;;;;;;7334544;19;110555;-83
2022/11/18 01:00:41;;;;;;;;;;;11.00;99.90;;;;;;7334512;19;111340;-80
2022/11/18 01:03:09;;;;;;;;;;;11.00;99.90;;;;;;7334317;19;108351;-80
2022/11/18 01:05:36;;;;;;;;;;;11.00;99.90;;;;;;7334565;19;110173;-80
2022/11/18 01:08:05;;;;;;;;;;;11.10;99.90;;;;;;7336919;19;111217;-80
2022/11/18 01:10:32;;;;;;;;;;;11.10;99.90;;;;;;7332761;19;109315;-80
2022/11/18 01:15:55;;;;;;;;;;;11.10;99.90;;;;;;7334274;19;109289;-80
2022/11/18 01:18:26;;;;;;;;;;;11.10;99.90;;;;;;7336086;19;112394;-80
2022/11/18 01:20:53;;;;;;;;;;;11.10;99.90;;;;;;7334554;19;110475;-80
2022/11/18 01:23:20;;;;;;;;;;;11.10;99.90;;;;;;7334452;19;108960;-80
2022/11/18 01:25:47;;;;;;;;;;;11.10;99.90;;;;;;7331726;19;109281;-80
2022/11/18 01:28:15;;;;;;;;;;;11.10;99.90;;;;;;7333366;19;111395;-82
2022/11/18 01:30:49;;;;;;;;;;;11.10;99.90;;;;;;7335223;19;108420;-82
2022/11/18 01:33:16;;;;;;;;;;;11.10;99.90;;;;;;7331887;19;108862;-81
2022/11/18 01:35:43;;;;;;;;;;;11.10;99.90;;;;;;7338979;19;109992;-82
2022/11/18 01:38:11;;;;;;;;;;;11.10;99.90;;;;;;7340279;19;112687;-83
2022/11/18 01:40:38;;;;;;;;;;;11.10;99.90;;;;;;7340251;19;110641;-81
2022/11/18 01:43:11;;;;;;;;;;;11.10;99.90;;;;;;7340046;19;108459;-81
2022/11/18 01:45:39;;;;;;;;;;;11.10;99.90;;;;;;7343947;19;110152;-82
2022/11/18 01:48:19;;;;;;;;;;;11.10;99.90;;;;;;7339141;19;110873;-82
2022/11/18 01:50:48;;;;;;;;;;;11.10;99.90;;;;;;7337955;19;109228;-81
2022/11/18 01:53:18;;;;;;;;;;;11.10;99.90;;;;;;7340050;19;109918;-82
2022/11/18 01:55:47;;;;;;;;;;;11.10;99.90;;;;;;7337372;19;112851;-80
2022/11/18 01:58:21;;;;;;;;;;;11.10;99.90;;;;;;7347412;19;108691;-81
2022/11/18 02:00:48;;;;;;;;;;;11.10;99.90;;;;;;7339943;19;110636;-81
2022/11/18 02:03:16;;;;;;;;;;;11.10;99.90;;;;;;7341783;19;108862;-80
2022/11/18 02:05:45;;;;;;;;;;;11.10;99.90;;;;;;7343114;19;108707;-81
2022/11/18 02:08:13;;;;;;;;;;;11.10;99.90;;;;;;7341615;19;110454;-83
2022/11/18 02:10:39;;;;;;;;;;;11.10;99.90;;;;;;7339247;19;108464;-80
2022/11/18 02:13:06;;;;;;;;;;;11.10;99.90;;;;;;7340440;19;108506;-81
2022/11/18 02:15:52;;;;;;;;;;;11.10;99.90;;;;;;7339763;19;109942;-82
2022/11/18 02:18:18;;;;;;;;;;;11.10;99.90;;;;;;7346865;19;108402;-80
2022/11/18 02:20:46;;;;;;;;;;;11.10;99.90;;;;;;7339641;19;110235;-80
2022/11/18 02:23:25;;;;;;;;;;;11.10;99.90;;;;;;7340988;19;108565;-82
2022/11/18 02:25:55;;;;;;;;;;;11.10;99.90;;;;;;7341614;19;108845;-82
2022/11/18 02:28:37;;;;;;;;;;;11.10;99.90;;;;;;7339890;19;109582;-80
2022/11/18 02:31:04;;;;;;;;;;;11.00;99.90;;;;;;7340639;19;108438;-80
2022/11/18 02:33:51;;;;;;;;;;;11.10;99.90;;;;;;7338349;19;109954;-80
2022/11/18 02:36:27;;;;;;;;;;;11.00;99.90;;;;;;7338020;19;110416;-80
2022/11/18 02:39:01;;;;;;;;;;;11.00;99.90;;;;;;7338312;19;108789;-79
2022/11/18 02:41:30;;;;;;;;;;;10.90;99.90;;;;;;7344477;19;109349;-80
2022/11/18 02:44:17;;;;;;;;;;;10.90;99.90;;;;;;7338763;19;108455;-80
2022/11/18 02:46:50;;;;;;;;;;;10.90;99.90;;;;;;7337942;19;112242;-82
2022/11/18 02:49:21;;;;;;;;;;;10.90;99.90;;;;;;7333935;19;110396;-80
2022/11/18 02:51:49;;;;;;;;;;;10.80;99.90;;;;;;7338226;19;109181;-82
2022/11/18 02:54:17;;;;;;;;;;;10.80;99.90;;;;;;7346350;19;112392;-80
2022/11/18 02:56:45;;;;;;;;;;;10.80;99.90;;;;;;7350458;19;109100;-80
2022/11/18 02:59:16;;;;;;;;;;;10.80;99.90;;;;;;7348674;19;109175;-82
2022/11/18 03:01:43;;;;;;;;;;;10.80;99.90;;;;;;7348225;19;108399;-82
2022/11/18 03:04:12;;;;;;;;;;;10.70;99.90;;;;;;7353640;19;110529;-82
2022/11/18 03:06:40;;;;;;;;;;;10.70;99.90;;;;;;7342061;19;109210;-82
2022/11/18 03:09:08;;;;;;;;;;;10.70;99.90;;;;;;7340092;19;110757;-80
2022/11/18 03:11:42;;;;;;;;;;;10.60;99.90;;;;;;7338949;19;109009;-80
2022/11/18 03:14:19;;;;;;;;;;;10.60;99.90;;;;;;7340685;19;109527;-82
2022/11/18 03:16:59;;;;;;;;;;;10.60;99.90;;;;;;7339635;19;111850;-82
2022/11/18 03:19:29;;;;;;;;;;;10.50;99.90;;;;;;7338213;19;108953;-81
2022/11/18 03:22:01;;;;;;;;;;;10.50;99.90;;;;;;7339046;19;109768;-82
2022/11/18 03:24:31;;;;;;;;;;;10.50;99.90;;;;;;7339171;19;110252;-82
2022/11/18 03:27:06;;;;;;;;;;;10.40;99.90;;;;;;7344476;19;108755;-81
2022/11/18 03:29:37;;;;;;;;;;;10.40;99.90;;;;;;7336366;19;110740;-82
2022/11/18 03:32:09;;;;;;;;;;;10.30;99.90;;;;;;7337374;19;109806;-82
2022/11/18 03:34:42;;;;;;;;;;;10.20;99.90;;;;;;7336347;19;109138;-82
2022/11/18 03:37:11;;;;;;;;;;;10.20;99.90;;;;;;7338002;19;111142;-81
2022/11/18 03:39:39;;;;;;;;;;;10.20;99.90;;;;;;7336510;19;109204;-82
2022/11/18 03:42:12;;;;;;;;;;;10.20;99.90;;;;;;7337297;19;108696;-81
2022/11/18 03:44:40;;;;;;;;;;;10.10;99.90;;;;;;7338547;19;110325;-82
2022/11/18 03:47:09;;;;;;;;;;;10.10;99.90;;;;;;7336851;19;108430;-82
2022/11/18 03:49:44;;;;;;;;;;;10.10;99.90;;;;;;7342737;19;109801;-82
2022/11/18 03:52:22;;;;;;;;;;;10.00;99.90;;;;;;7338246;19;109386;-81
2022/11/18 03:54:51;;;;;;;;;;;10.00;99.90;;;;;;7334426;19;109773;-82
2022/11/18 03:57:22;;;;;;;;;;;10.00;99.90;;;;;;7335716;19;109957;-81
2022/11/18 04:00:15;;;;;;;;;;;10.00;99.90;;;;;;7332308;19;108490;-81
2022/11/18 04:02:42;;;;;;;;;;;9.90;99.90;;;;;;7333741;19;109295;-81
2022/11/18 04:05:11;;;;;;;;;;;9.80;99.90;;;;;;7333985;19;110435;-81
2022/11/18 04:07:47;;;;;;;;;;;9.70;99.90;;;;;;7332031;19;108531;-81
2022/11/18 04:10:29;;;;;;;;;;;9.70;99.90;;;;;;7335796;19;109736;-81
2022/11/18 04:13:01;;;;;;;;;;;9.60;99.90;;;;;;7340585;19;113524;-81
2022/11/18 04:15:32;;;;;;;;;;;9.60;99.90;;;;;;7335018;19;109118;-81
2022/11/18 04:17:59;;;;;;;;;;;9.50;99.90;;;;;;7334756;19;113072;-81
2022/11/18 04:20:27;;;;;;;;;;;9.50;99.90;;;;;;7338096;19;110201;-81
2022/11/18 04:22:54;;;;;;;;;;;9.50;99.90;;;;;;7333198;19;109674;-81
2022/11/18 04:25:23;;;;;;;;;;;9.50;99.90;;;;;;7335851;19;113980;-81
2022/11/18 04:27:50;;;;;;;;;;;9.50;99.90;;;;;;7335605;19;109447;-81
2022/11/18 04:30:18;;;;;;;;;;;9.40;99.90;;;;;;7335367;19;110262;-81
2022/11/18 04:32:44;;;;;;;;;;;9.40;99.90;;;;;;7338939;19;110247;-81
2022/11/18 04:35:11;;;;;;;;;;;9.40;99.90;;;;;;7334740;19;109035;-81
2022/11/18 04:37:38;;;;;;;;;;;9.40;99.90;;;;;;7335852;19;110411;-81
2022/11/18 04:40:05;;;;;;;;;;;9.40;99.90;;;;;;7335038;19;108758;-81
2022/11/18 04:42:32;;;;;;;;;;;9.40;99.90;;;;;;7333234;19;109210;-81
2022/11/18 04:44:59;;;;;;;;;;;9.40;99.90;;;;;;7335633;19;110647;-81
2022/11/18 04:47:26;;;;;;;;;;;9.40;99.90;;;;;;7336225;19;108849;-81
2022/11/18 04:49:53;;;;;;;;;;;9.30;99.90;;;;;;7337240;19;109456;-81
2022/11/18 04:52:20;;;;;;;;;;;9.30;99.90;;;;;;7331647;19;110404;-81
2022/11/18 04:54:47;;;;;;;;;;;9.30;99.90;;;;;;7340218;19;108362;-81
2022/11/18 04:57:14;;;;;;;;;;;9.30;99.90;;;;;;7334773;19;110281;-81
2022/11/18 04:59:41;;;;;;;;;;;9.30;99.90;;;;;;7335383;19;114372;-81
2022/11/18 05:02:07;;;;;;;;;;;9.30;99.90;;;;;;7334843;19;109588;-81
2022/11/18 05:04:34;;;;;;;;;;;9.30;99.90;;;;;;7333309;19;110955;-81
2022/11/18 05:07:02;;;;;;;;;;;9.30;99.90;;;;;;7335795;19;109382;-81
2022/11/18 05:09:29;;;;;;;;;;;9.30;99.90;;;;;;7336872;19;109454;-81
2022/11/18 05:14:44;;;;;;;;;;;9.30;99.90;;;;;;7335338;19;108467;-81
2022/11/18 05:17:16;;;;;;;;;;;9.30;99.90;;;;;;7340144;19;108745;-80
2022/11/18 05:19:43;;;;;;;;;;;9.30;99.90;;;;;;7335008;19;108321;-81
2022/11/18 05:22:10;;;;;;;;;;;9.30;99.90;;;;;;7332326;19;110067;-81
2022/11/18 05:24:37;;;;;;;;;;;9.30;99.90;;;;;;7335224;19;110159;-81
2022/11/18 05:27:04;;;;;;;;;;;9.30;99.90;;;;;;7334935;19;108581;-81
2022/11/18 05:29:32;;;;;;;;;;;9.30;99.90;;;;;;7334750;19;109729;-80
2022/11/18 05:31:59;;;;;;;;;;;9.20;99.90;;;;;;7333841;19;111108;-81
2022/11/18 05:34:26;;;;;;;;;;;9.30;99.90;;;;;;7332519;19;108686;-81
2022/11/18 05:36:53;;;;;;;;;;;9.30;99.90;;;;;;7335317;19;112177;-81
2022/11/18 05:39:20;;;;;;;;;;;9.20;99.90;;;;;;7340452;19;110864;-81
2022/11/18 05:44:33;;;;;;;;;;;9.20;99.90;;;;;;7332953;19;111105;-81
2022/11/18 05:47:00;;;;;;;;;;;9.20;99.90;;;;;;7331694;19;109370;-81
2022/11/18 05:49:27;;;;;;;;;;;9.20;99.90;;;;;;7331977;19;111117;-81
2022/11/18 05:51:54;;;;;;;;;;;9.20;99.90;;;;;;7335088;19;110818;-81
2022/11/18 05:54:21;;;;;;;;;;;9.20;99.90;;;;;;7334134;19;108307;-82
2022/11/18 05:56:48;;;;;;;;;;;9.20;99.90;;;;;;7333043;19;109737;-81
2022/11/18 05:59:15;;;;;;;;;;;9.10;99.90;;;;;;7331509;19;110177;-81
2022/11/18 06:01:43;;;;;;;;;;;9.10;99.90;;;;;;7339590;19;108494;-80
2022/11/18 06:04:12;;;;;;;;;;;9.00;99.90;;;;;;7331950;19;109225;-81
2022/11/18 06:06:39;;;;;;;;;;;9.00;99.90;;;;;;7333250;19;109198;-81
2022/11/18 06:09:07;;;;;;;;;;;9.00;99.90;;;;;;7332705;19;109140;-81
2022/11/18 06:11:40;;;;;;;;;;;9.00;99.90;;;;;;7333763;19;110364;-81
2022/11/18 06:14:07;;;;;;;;;;;9.00;99.90;;;;;;7330326;19;108953;-81
2022/11/18 06:16:37;;;;;;;;;;;9.00;99.90;;;;;;7334567;19;109419;-82
2022/11/18 06:19:06;;;;;;;;;;;9.00;99.90;;;;;;7330642;19;109375;-81
2022/11/18 06:21:33;;;;;;;;;;;9.00;99.90;;;;;;7332784;19;108813;-81
2022/11/18 06:24:01;;;;;;;;;;;9.00;99.90;;;;;;7344897;19;109854;-80
2022/11/18 06:26:28;;;;;;;;;;;9.00;99.90;;;;;;7338199;19;108727;-81
2022/11/18 06:28:55;;;;;;;;;;;9.00;99.90;;;;;;7339697;19;109163;-80
2022/11/18 06:31:22;;;;;;;;;;;9.00;99.90;;;;;;7340121;19;110238;-81
2022/11/18 06:33:49;;;;;;;;;;;9.00;99.90;;;;;;7338568;19;108743;-80
2022/11/18 06:36:16;;;;;;;;;;;9.00;99.90;;;;;;7341219;19;109497;-80
2022/11/18 06:38:43;;;;;;;;;;;9.00;99.90;;;;;;7336229;19;110576;-81
2022/11/18 06:41:10;;;;;;;;;;;9.00;99.90;;;;;;7337895;19;108970;-81
2022/11/18 06:43:45;;;;;;;;;;;8.90;99.90;;;;;;7341302;19;109201;-81
2022/11/18 06:49:00;;;;;;;;;;;8.80;99.90;;;;;;7340907;19;109310;-80
2022/11/18 06:51:27;;;;;;;;;;;8.80;99.90;;;;;;7336336;19;111280;-81
2022/11/18 06:53:54;;;;;;;;;;;8.80;99.90;;;;;;7337508;19;108414;-81
2022/11/18 06:56:21;;;;;;;;;;;8.80;99.90;;;;;;7336443;19;109116;-80
2022/11/18 06:58:52;;;;;;;;;;;8.80;99.90;;;;;;7339114;19;109610;-79
2022/11/18 07:01:21;;;;;;;;;;;8.80;99.90;;;;;;7340010;19;109376;-79
2022/11/18 07:03:48;;;;;;;;;;;8.70;99.90;;;;;;7342912;19;109039;-79
2022/11/18 07:06:19;;;;;;;;;;;8.70;99.90;;;;;;7344745;19;110289;-80
2022/11/18 07:08:47;;;;;;;;;;;8.70;99.90;;;;;;7338051;19;109656;-80
2022/11/18 07:11:15;;;;;;;;;;;8.70;99.90;;;;;;7335269;19;111043;-79
2022/11/18 07:13:43;;;;;;;;;;;8.60;99.90;;;;;;7339202;19;108488;-80
2022/11/18 07:16:12;;;;;;;;;;;8.60;99.90;;;;;;7337871;19;111687;-79
2022/11/18 07:18:40;;;;;;;;;;;8.60;99.90;;;;;;7335208;19;109677;-79
2022/11/18 07:21:09;;;;;;;;;;;8.70;99.90;;;;;;7337291;19;109010;-79
2022/11/18 07:23:36;;;;;;;;;;;8.70;99.90;;;;;;7339177;19;110304;-79
2022/11/18 07:26:03;;;;;;;;;;;8.70;99.90;;;;;;7338122;19;110539;-79
2022/11/18 07:28:30;;;;;;;;;;;8.70;99.90;;;;;;7342747;19;109072;-80
2022/11/18 07:31:01;;;;;;;;;;;8.70;99.90;;;;;;7334520;19;113020;-80
2022/11/18 07:33:29;;;;;;;;;;;8.70;99.90;;;;;;7331879;19;108365;-80
2022/11/18 07:35:59;;;;;;;;;;;8.70;99.90;;;;;;7334054;19;109541;-79
2022/11/18 07:38:26;;;;;;;;;;;8.80;99.90;;;;;;7336668;19;110299;-80
2022/11/18 07:40:53;;;;;;;;;;;8.80;99.90;;;;;;7340596;19;109962;-73
2022/11/18 07:43:20;;;;;;;;;;;8.80;99.90;;;;;;7337047;19;109272;-73
2022/11/18 07:45:46;;;;;;;;;;;8.80;99.90;;;;;;7336144;19;110280;-74
2022/11/18 07:48:13;;;;;;;;;;;8.80;99.90;;;;;;7336405;19;108575;-76
2022/11/18 07:50:40;;;;;;;;;;;8.90;99.90;;;;;;7340395;19;109198;-77
2022/11/18 07:53:12;;;;;;;;;;;8.90;99.90;;;;;;7336722;19;109262;-76
2022/11/18 07:55:39;;;;;;;;;;;8.90;99.90;;;;;;7337720;19;109090;-75
2022/11/18 07:58:06;;;;;;;;;;;9.00;99.90;;;;;;7336397;19;109193;-73
2022/11/18 08:00:33;;;;;;;;;;;9.00;99.90;;;;;;7338118;19;108504;-73
2022/11/18 08:03:00;;;;;;;;;;;9.00;99.90;;;;;;7334683;19;109321;-74
2022/11/18 08:05:26;;;;;;;;;;;9.10;99.90;;;;;;7335341;19;110643;-72
2022/11/18 08:07:53;;;;;;;;;;;9.10;99.90;;;;;;7335461;19;109261;-74
2022/11/18 08:10:20;;;;;;;;;;;9.20;99.90;;;;;;7337354;19;110384;-75
2022/11/18 08:12:47;;;;;;;;;;;9.20;99.90;;;;;;7341379;19;110201;-73
2022/11/18 08:15:14;;;;;;;;;;;9.30;99.90;;;;;;7338376;19;108857;-73
2022/11/18 08:17:41;;;;;;;;;;;9.30;99.90;;;;;;7335306;19;110999;-72
2022/11/18 08:20:08;;;;;;;;;;;9.40;99.90;;;;;;7336788;19;108736;-72
2022/11/18 08:22:35;;;;;;;;;;;9.40;99.90;;;;;;7336498;19;109644;-72
2022/11/18 08:25:02;;;;;;;;;;;9.30;99.90;;;;;;7336945;19;110113;-73
2022/11/18 08:27:30;;;;;;;;;;;9.40;99.90;;;;;;7335108;19;109164;-73
2022/11/18 08:29:56;;;;;;;;;;;9.40;99.90;;;;;;7336327;19;108550;-73
2022/11/18 08:32:23;;;;;;;;;;;9.30;99.90;;;;;;7335601;19;110556;-73
2022/11/18 08:34:50;;;;;;;;;;;9.40;99.90;;;;;;7340460;19;108447;-70
2022/11/18 08:37:17;;;;;;;;;;;9.40;99.90;;;;;;7335440;19;109421;-70
2022/11/18 08:39:44;;;;;;;;;;;9.40;99.90;;;;;;7335555;19;110084;-73
2022/11/18 08:42:11;;;;;;;;;;;9.40;99.90;;;;;;7336006;19;108998;-72
2022/11/18 08:44:38;;;;;;;;;;;9.50;99.90;;;;;;7334913;19;109397;-71
2022/11/18 08:47:05;;;;;;;;;;;9.50;99.90;;;;;;7331711;19;108985;-70
2022/11/18 08:49:32;;;;;;;;;;;9.50;99.90;;;;;;7333143;19;109305;-71
2022/11/18 08:51:58;;;;;;;;;;;9.60;99.90;;;;;;7335717;19;109604;-71
2022/11/18 08:54:25;;;;;;;;;;;9.60;99.90;;;;;;7340938;19;108825;-70
2022/11/18 08:56:52;;;;;;;;;;;9.60;99.90;;;;;;7335521;19;109201;-70
2022/11/18 08:59:20;;;;;;;;;;;9.70;99.90;;;;;;7335976;19;108503;-71
2022/11/18 09:01:47;;;;;;;;;;;9.80;99.90;;;;;;7334150;19;109832;-71
2022/11/18 09:04:14;;;;;;;;;;;9.80;99.90;;;;;;7334673;19;111029;-70
2022/11/18 09:06:41;;;;;;;;;;;9.90;99.90;;;;;;7335459;19;113823;-71
2022/11/18 09:09:08;;;;;;;;;;;10.00;99.90;;;;;;7333897;19;109224;-71
2022/11/18 09:11:36;;;;;;;;;;;10.00;99.90;;;;;;7334773;19;110472;-71
2022/11/18 09:14:03;;;;;;;;;;;10.00;99.90;;;;;;7336779;19;108405;-71
2022/11/18 09:16:50;;;;;;;;;;;10.10;99.90;;;;;;7338751;19;108948;-71
2022/11/18 09:19:17;;;;;;;;;;;10.20;99.90;;;;;;7334644;19;109146;-71
2022/11/18 09:22:04;;;;;;;;;;;10.20;99.90;;;;;;7334424;19;111044;-71
2022/11/18 09:24:31;;;;;;;;;;;10.30;99.90;;;;;;7332997;19;113306;-71
2022/11/18 09:27:01;;;;;;;;;;;10.30;99.90;;;;;;7335754;19;109056;-71
2022/11/18 09:29:27;;;;;;;;;;;10.40;99.90;;;;;;7331658;19;110124;-71
2022/11/18 09:31:55;;;;;;;;;;;10.40;99.90;;;;;;7334869;19;110390;-72
2022/11/18 09:34:22;;;;;;;;;;;10.40;99.90;;;;;;7333802;19;108342;-71
2022/11/18 09:36:49;;;;;;;;;;;10.50;99.90;;;;;;7334893;19;109955;-71
2022/11/18 09:39:16;;;;;;;;;;;10.50;99.90;;;;;;7339971;19;110635;-72
2022/11/18 09:41:45;;;;;;;;;;;10.60;99.90;;;;;;7333572;19;109420;-71
2022/11/18 09:44:30;;;;;;;;;;;10.60;99.90;;;;;;7334677;19;110880;-71
2022/11/18 09:47:16;;;;;;;;;;;10.70;99.90;;;;;;7334589;19;108915;-72
2022/11/18 09:49:44;;;;;;;;;;;10.70;99.90;;;;;;7335866;19;108710;-71
2022/11/18 09:52:14;;;;;;;;;;;10.70;99.90;;;;;;7333691;19;110510;-71
2022/11/18 09:54:41;;;;;;;;;;;10.80;99.90;;;;;;7334036;19;112792;-71
2022/11/18 09:57:13;;;;;;;;;;;10.80;99.90;;;;;;7335593;19;109328;-71
2022/11/18 09:59:40;;;;;;;;;;;10.90;99.90;;;;;;7340551;19;109416;-72
2022/11/18 10:02:21;;;;;;;;;;;10.90;99.90;;;;;;7346345;19;108723;-71
2022/11/18 10:04:49;;;;;;;;;;;10.90;99.90;;;;;;7342357;19;110632;-72
2022/11/18 10:07:20;;;;;;;;;;;11.00;99.90;;;;;;7340877;19;114304;-72
2022/11/18 10:09:50;;;;;;;;;;;11.00;99.90;;;;;;7340029;19;109275;-71
2022/11/18 10:12:20;;;;;;;;;;;11.10;99.90;;;;;;7339808;19;110314;-71
2022/11/18 10:15:02;;;;;;;;;;;11.10;99.90;;;;;;7341114;19;108922;-71
2022/11/18 10:17:28;;;;;;;;;;;11.10;99.90;;;;;;7339605;19;109135;-71
2022/11/18 10:20:07;;;;;;;;;;;11.10;99.90;;;;;;7341304;19;110368;-71
2022/11/18 10:22:47;;;;;;;;;;;11.20;99.90;;;;;;7339602;19;108811;-71
2022/11/18 10:25:15;;;;;;;;;;;11.10;99.90;;;;;;7346372;19;108888;-71
2022/11/18 10:27:43;;;;;;;;;;;11.20;99.90;;;;;;7339384;19;108981;-71
2022/11/18 10:30:23;;;;;;;;;;;11.20;99.90;;;;;;7341386;19;112514;-71
2022/11/18 10:32:57;;;;;;;;;;;11.20;99.90;;;;;;7340951;19;110952;-71
2022/11/18 10:35:24;;;;;;;;;;;11.30;99.90;;;;;;7339550;19;108388;-71
2022/11/18 10:38:03;;;;;;;;;;;11.30;99.90;;;;;;7340448;19;111287;-71
2022/11/18 10:40:36;;;;;;;;;;;11.30;99.90;;;;;;7338180;19;109943;-71
2022/11/18 10:43:03;;;;;;;;;;;11.30;99.90;;;;;;7342049;19;108379;-71
2022/11/18 10:45:31;;;;;;;;;;;11.40;99.90;;;;;;7343204;19;109322;-71
2022/11/18 10:47:58;;;;;;;;;;;11.40;99.90;;;;;;7342435;19;108687;-71
2022/11/18 10:50:29;;;;;;;;;;;11.50;99.90;;;;;;7340152;19;109233;-71
2022/11/18 10:52:56;;;;;;;;;;;11.50;99.90;;;;;;7338981;19;109315;-71
2022/11/18 10:55:24;;;;;;;;;;;11.60;99.90;;;;;;7337924;19;108640;-71
2022/11/18 10:57:54;;;;;;;;;;;11.60;99.90;;;;;;7338944;19;109103;-71
2022/11/18 11:00:35;;;;;;;;;;;11.70;99.90;;;;;;7339502;19;113097;-71
2022/11/18 11:03:28;;;;;;;;;;;11.80;99.90;;;;;;7338360;19;110093;-71
2022/11/18 11:06:14;;;;;;;;;;;11.90;99.90;;;;;;7338310;19;109070;-71
2022/11/18 11:08:49;;;;;;;;;;;11.90;99.90;;;;;;7339459;19;111041;-71
2022/11/18 11:11:24;;;;;;;;;;;12.00;99.90;;;;;;7338939;19;109710;-71
2022/11/18 11:13:54;;;;;;;;;;;12.10;99.90;;;;;;7338821;19;110693;-71
2022/11/18 11:16:21;;;;;;;;;;;12.20;99.90;;;;;;7338519;19;109000;-71
2022/11/18 11:18:55;;;;;;;;;;;12.20;99.90;;;;;;7338824;19;109566;-71
2022/11/18 11:21:26;;;;;;;;;;;12.20;99.90;;;;;;7338554;19;110213;-71
2022/11/18 11:23:53;;;;;;;;;;;12.30;99.90;;;;;;7338478;19;109123;-71
2022/11/18 11:26:40;;;;;;;;;;;12.20;99.90;;;;;;7337161;19;109098;-71
2022/11/18 11:29:36;;;;;;;;;;;12.30;99.90;;;;;;7335147;19;110086;-71
2022/11/18 11:32:06;;;;;;;;;;;12.30;99.90;;;;;;7345660;19;109003;-70
2022/11/18 11:34:39;;;;;;;;;;;12.40;99.90;;;;;;7338037;19;110375;-72
2022/11/18 11:37:26;;;;;;;;;;;12.50;99.90;;;;;;7339901;19;108415;-71
2022/11/18 11:40:02;;;;;;;;;;;12.50;99.90;;;;;;7334288;19;109417;-71
2022/11/18 11:42:32;;;;;;;;;;;12.50;99.90;;;;;;7337583;19;110966;-74
2022/11/18 11:45:17;;;;;;;;;;;12.50;99.90;;;;;;7336351;19;109239;-71
2022/11/18 11:48:03;;;;;;;;;;;12.60;99.90;;;;;;7338934;19;109758;-72
2022/11/18 11:50:57;;;;;;;;;;;12.70;99.90;;;;;;7337060;19;110372;-71
2022/11/18 11:53:49;;;;;;;;;;;12.70;99.90;;;;;;7337033;19;109718;-72
2022/11/18 11:56:28;;;;;;;;;;;12.70;99.90;;;;;;7341213;19;109658;-71
2022/11/18 11:59:01;;;;;;;;;;;12.70;99.90;;;;;;7339260;19;108617;-72
2022/11/18 12:01:35;;;;;;;;;;;12.70;99.90;;;;;;7337158;19;109334;-72
2022/11/18 12:04:21;;;;;;;;;;;12.80;99.90;;;;;;7337602;19;109213;-71
2022/11/18 12:06:49;;;;;;;;;;;12.80;99.90;;;;;;7334765;19;108693;-72
2022/11/18 12:09:32;;;;;;;;;;;12.70;99.90;;;;;;7336345;19;109947;-72
2022/11/18 12:12:01;;;;;;;;;;;12.70;99.90;;;;;;7338348;19;110368;-72
2022/11/18 12:14:31;;;;;;;;;;;12.70;99.90;;;;;;7336479;19;108630;-71
2022/11/18 12:17:10;;;;;;;;;;;12.70;99.90;;;;;;7335786;19;112883;-71
2022/11/18 12:19:38;;;;;;;;;;;12.70;99.90;;;;;;7340155;19;110725;-71
2022/11/18 12:22:05;;;;;;;;;;;12.70;99.90;;;;;;7336214;19;108422;-71
2022/11/18 12:24:39;;;;;;;;;;;12.70;99.90;;;;;;7335284;19;110629;-71
2022/11/18 12:27:09;;;;;;;;;;;12.60;99.90;;;;;;7336721;19;108536;-72
2022/11/18 12:29:39;;;;;;;;;;;12.60;99.90;;;;;;7339178;19;109398;-72
2022/11/18 12:32:25;;;;;;;;;;;12.60;99.90;;;;;;7338152;19;109176;-71
2022/11/18 12:34:59;;;;;;;;;;;12.60;99.90;;;;;;7335473;19;109349;-72
2022/11/18 12:37:26;;;;;;;;;;;12.50;99.90;;;;;;7333979;19;109551;-72
2022/11/18 12:39:59;;;;;;;;;;;12.50;99.90;;;;;;7337163;19;110861;-72
2022/11/18 12:45:45;;;;;;;;;;;12.50;99.90;;;;;;7336907;19;110550;-72
2022/11/18 12:48:31;;;;;;;;;;;12.40;99.90;;;;;;7335304;19;108414;-72
2022/11/18 12:51:10;;;;;;;;;;;12.40;99.90;;;;;;7337792;19;110321;-73
2022/11/18 12:53:47;;;;;;;;;;;12.30;99.90;;;;;;7335447;19;110233;-72
2022/11/18 12:56:18;;;;;;;;;;;12.30;99.90;;;;;;7336887;19;109189;-72
2022/11/18 12:58:52;;;;;;;;;;;12.30;99.90;;;;;;7339014;19;109343;-72
2022/11/18 13:01:20;;;;;;;;;;;12.30;99.90;;;;;;7335557;19;109530;-72
2022/11/18 13:03:47;;;;;;;;;;;12.30;99.90;;;;;;7341970;19;108410;-73
2022/11/18 13:06:25;;;;;;;;;;;12.30;99.90;;;;;;7336670;19;110332;-72
2022/11/18 13:08:54;;;;;;;;;;;12.20;99.90;;;;;;7336751;19;108552;-72
2022/11/18 13:19:54;;;;;;;;;;;12.20;99.90;;;;;;7336179;19;109407;-73
2022/11/18 13:25:21;;;;;;;;;;;12.20;99.90;;;;;;7335328;19;108598;-77
2022/11/18 13:27:56;;;;;;;;;;;12.10;99.90;;;;;;7339016;19;109106;-76
2022/11/18 13:30:23;;;;;;;;;;;12.10;99.90;;;;;;7334150;19;108976;-77
2022/11/18 13:32:52;;;;;;;;;;;12.10;99.90;;;;;;7337228;19;109031;-76
2022/11/18 13:35:20;;;;;;;;;;;12.10;99.90;;;;;;7338968;19;110461;-78
2022/11/18 13:37:49;;;;;;;;;;;12.10;99.90;;;;;;7340586;19;108537;-72
2022/11/18 13:40:29;;;;;;;;;;;12.20;99.90;;;;;;7343423;19;109976;-73
2022/11/18 13:42:56;;;;;;;;;;;12.20;99.90;;;;;;7341075;19;109694;-72
2022/11/18 13:45:27;;;;;;;;;;;12.10;99.90;;;;;;7340673;19;109318;-72
2022/11/18 13:48:00;;;;;;;;;;;12.10;99.90;;;;;;7341308;19;109207;-74
2022/11/18 13:50:30;;;;;;;;;;;12.10;99.90;;;;;;7350127;19;110349;-73
2022/11/18 13:53:06;;;;;;;;;;;12.10;99.90;;;;;;7340679;19;109515;-73
2022/11/18 13:55:37;;;;;;;;;;;12.20;99.90;;;;;;7337782;19;110050;-72
2022/11/18 13:58:04;;;;;;;;;;;12.10;99.90;;;;;;7335120;19;109146;-72
2022/11/18 14:00:33;;;;;;;;;;;12.10;99.90;;;;;;7338985;19;109452;-73
2022/11/18 14:03:05;;;;;;;;;;;12.10;99.90;;;;;;7337774;19;109636;-71
2022/11/18 14:05:31;;;;;;;;;;;12.10;99.90;;;;;;7343384;19;109357;-72
2022/11/18 14:08:00;;;;;;;;;;;12.10;99.90;;;;;;7341384;19;109089;-72
2022/11/18 14:10:31;;;;;;;;;;;12.10;99.90;;;;;;7339624;19;113803;-74
2022/11/18 14:13:12;;;;;;;;;;;12.10;99.90;;;;;;7346882;19;108571;-73
2022/11/18 14:15:39;;;;;;;;;;;12.10;99.90;;;;;;7339266;19;110230;-73
2022/11/18 14:18:17;;;;;;;;;;;12.10;99.90;;;;;;7341018;19;108517;-73
2022/11/18 14:20:54;;;;;;;;;;;12.10;99.90;;;;;;7340124;19;109450;-73
2022/11/18 14:23:25;;;;;;;;;;;12.10;99.90;;;;;;7338295;19;114033;-72
2022/11/18 14:25:52;;;;;;;;;;;12.00;99.90;;;;;;7340781;19;108696;-72
2022/11/18 14:28:24;;;;;;;;;;;12.00;99.90;;;;;;7340070;19;110017;-72
2022/11/18 14:31:10;;;;;;;;;;;12.00;99.90;;;;;;7344150;19;109810;-73
2022/11/18 14:33:37;;;;;;;;;;;12.10;99.90;;;;;;7340650;19;108380;-72
2022/11/18 14:36:12;;;;;;;;;;;12.00;99.90;;;;;;7342785;19;109277;-72
2022/11/18 14:38:42;;;;;;;;;;;12.00;99.90;;;;;;7338106;19;109587;-72
2022/11/18 14:41:47;;;;;;;;;;;12.00;99.90;;;;;;7338608;19;111267;-73
2022/11/18 14:44:14;;;;;;;;;;;12.00;99.90;;;;;;7336291;19;111308;-73
2022/11/18 14:46:43;;;;;;;;;;;12.00;99.90;;;;;;7339072;19;109296;-73
2022/11/18 14:49:15;;;;;;;;;;;12.00;99.90;;;;;;7340447;19;109370;-73
2022/11/18 14:51:43;;;;;;;;;;;12.00;99.90;;;;;;7338241;19;110760;-73
2022/11/18 14:54:14;;;;;;;;;;;12.00;99.90;;;;;;7339546;19;108357;-73
2022/11/18 14:56:53;;;;;;;;;;;11.90;99.90;;;;;;7338364;19;109103;-73